createdAt,value
2022-09-03T00:00:10.724Z,1.60
2022-09-03T00:01:10.729Z,1.40
2022-09-03T00:02:10.784Z,1.60
2022-09-03T00:03:10.807Z,1.30
2022-09-03T00:04:10.728Z,1.30
2022-09-03T00:05:10.728Z,1.30
2022-09-03T00:06:10.733Z,1.50
2022-09-03T00:07:10.733Z,1.40
2022-09-03T00:08:10.745Z,1.40
2022-09-03T00:09:10.738Z,1.40
2022-09-03T00:10:10.737Z,1.30
2022-09-03T00:11:10.735Z,1.30
2022-09-03T00:12:10.739Z,1.30
2022-09-03T00:13:10.738Z,1.40
2022-09-03T00:14:10.743Z,1.40
2022-09-03T00:15:10.746Z,1.50
2022-09-03T00:16:10.832Z,1.60
2022-09-03T00:17:10.748Z,1.50
2022-09-03T00:18:10.754Z,1.20
2022-09-03T00:19:10.750Z,1.30
2022-09-03T00:20:10.752Z,1.30
2022-09-03T00:21:10.753Z,1.30
2022-09-03T00:22:10.756Z,1.40
2022-09-03T00:23:10.757Z,1.40
2022-09-03T00:24:14.120Z,1.30
2022-09-03T00:25:10.759Z,1.50
2022-09-03T00:26:10.762Z,1.50
2022-09-03T00:27:10.763Z,1.30
2022-09-03T00:28:10.768Z,1.40
2022-09-03T00:29:10.763Z,1.50
2022-09-03T00:30:11.165Z,1.40
2022-09-03T00:31:10.792Z,1.50
2022-09-03T00:32:10.777Z,1.40
2022-09-03T00:33:10.770Z,1.30
2022-09-03T00:34:10.775Z,1.40
2022-09-03T00:35:10.779Z,1.30
2022-09-03T00:36:10.779Z,1.20
2022-09-03T00:37:14.425Z,1.40
2022-09-03T00:38:10.782Z,1.40
2022-09-03T00:39:10.781Z,1.30
2022-09-03T00:40:10.785Z,1.40
2022-09-03T00:41:10.785Z,1.20
2022-09-03T00:42:10.792Z,1.20
2022-09-03T00:43:10.789Z,1.40
2022-09-03T00:44:10.793Z,1.30
2022-09-03T00:45:10.794Z,1.50
2022-09-03T00:46:10.883Z,1.50
2022-09-03T00:47:10.799Z,1.60
2022-09-03T00:48:10.796Z,1.60
2022-09-03T00:49:10.796Z,1.30
2022-09-03T00:50:10.801Z,1.50
2022-09-03T00:51:10.802Z,1.30
2022-09-03T00:52:10.805Z,1.20
2022-09-03T00:53:10.804Z,1.40
2022-09-03T00:54:10.808Z,1.40
2022-09-03T00:55:10.805Z,1.40
2022-09-03T00:56:10.811Z,1.30
2022-09-03T00:57:10.809Z,1.30
2022-09-03T00:58:10.865Z,1.40
2022-09-03T00:59:10.811Z,1.20
2022-09-03T01:00:10.816Z,1.30
2022-09-03T01:01:10.875Z,1.30
2022-09-03T01:02:10.930Z,1.30
2022-09-03T01:03:10.819Z,1.30
2022-09-03T01:04:10.825Z,1.20
2022-09-03T01:05:10.820Z,1.30
2022-09-03T01:06:10.826Z,1.50
2022-09-03T01:07:10.825Z,1.30
2022-09-03T01:08:10.829Z,1.40
2022-09-03T01:09:10.828Z,1.50
2022-09-03T01:10:10.832Z,1.10
2022-09-03T01:11:10.829Z,1.10
2022-09-03T01:12:10.834Z,1.30
2022-09-03T01:13:10.836Z,1.30
2022-09-03T01:14:10.848Z,1.50
2022-09-03T01:15:10.839Z,1.40
2022-09-03T01:16:10.931Z,1.40
2022-09-03T01:17:10.844Z,1.20
2022-09-03T01:18:10.849Z,1.20
2022-09-03T01:19:10.843Z,1.20
2022-09-03T01:20:10.846Z,1.30
2022-09-03T01:21:10.850Z,1.30
2022-09-03T01:22:10.849Z,1.20
2022-09-03T01:23:10.849Z,1.30
2022-09-03T01:24:10.858Z,1.30
2022-09-03T01:25:10.851Z,1.20
2022-09-03T01:26:10.859Z,1.40
2022-09-03T01:27:10.860Z,1.20
2022-09-03T01:28:10.861Z,1.30
2022-09-03T01:29:10.864Z,1.20
2022-09-03T01:30:10.864Z,1.50
2022-09-03T01:31:10.980Z,1.40
2022-09-03T01:32:10.872Z,1.20
2022-09-03T01:33:10.873Z,1.30
2022-09-03T01:34:10.867Z,1.30
2022-09-03T01:35:10.868Z,1.40
2022-09-03T01:36:10.871Z,1.30
2022-09-03T01:37:10.871Z,1.20
2022-09-03T01:38:10.872Z,1.10
2022-09-03T01:39:10.873Z,1.40
2022-09-03T01:40:10.886Z,1.30
2022-09-03T01:41:10.874Z,1.40
2022-09-03T01:42:10.883Z,1.20
2022-09-03T01:43:10.880Z,1.30
2022-09-03T01:44:10.885Z,1.50
2022-09-03T01:45:10.881Z,1.30
2022-09-03T01:46:10.926Z,1.20
2022-09-03T01:47:10.886Z,1.30
2022-09-03T01:48:10.890Z,1.40
2022-09-03T01:49:10.888Z,1.40
2022-09-03T01:50:10.889Z,1.30
2022-09-03T01:51:10.898Z,1.30
2022-09-03T01:52:10.896Z,1.30
2022-09-03T01:53:10.893Z,1.20
2022-09-03T01:54:20.951Z,1.40
2022-09-03T01:55:10.900Z,1.20
2022-09-03T01:56:10.902Z,1.20
2022-09-03T01:57:26.412Z,1.40
2022-09-03T01:58:10.900Z,1.40
2022-09-03T01:59:10.905Z,1.10
2022-09-03T02:00:10.914Z,1.40
2022-09-03T02:01:10.970Z,1.10
2022-09-03T02:02:10.937Z,1.20
2022-09-03T02:03:10.910Z,1.30
2022-09-03T02:04:10.912Z,1.30
2022-09-03T02:05:10.913Z,1.40
2022-09-03T02:06:10.915Z,1.40
2022-09-03T02:07:10.914Z,1.30
2022-09-03T02:08:11.714Z,1.30
2022-09-03T02:09:10.918Z,1.20
2022-09-03T02:10:10.920Z,1.20
2022-09-03T02:11:10.924Z,1.30
2022-09-03T02:12:10.928Z,1.40
2022-09-03T02:13:10.924Z,1.30
2022-09-03T02:14:10.925Z,1.20
2022-09-03T02:15:10.927Z,1.20
2022-09-03T02:16:10.992Z,1.30
2022-09-03T02:17:10.932Z,1.20
2022-09-03T02:18:10.935Z,1.30
2022-09-03T02:19:10.948Z,1.50
2022-09-03T02:20:10.942Z,1.10
2022-09-03T02:21:10.938Z,1.30
2022-09-03T02:22:10.940Z,1.40
2022-09-03T02:23:10.941Z,1.30
2022-09-03T02:24:10.950Z,1.20
2022-09-03T02:25:10.947Z,1.20
2022-09-03T02:26:10.943Z,1.20
2022-09-03T02:27:10.978Z,1.40
2022-09-03T02:28:17.112Z,1.00
2022-09-03T02:29:10.949Z,1.30
2022-09-03T02:30:10.951Z,1.40
2022-09-03T02:31:11.058Z,1.30
2022-09-03T02:32:10.953Z,1.30
2022-09-03T02:33:10.953Z,1.10
2022-09-03T02:34:10.955Z,1.00
2022-09-03T02:35:10.958Z,1.20
2022-09-03T02:36:10.962Z,1.30
2022-09-03T02:37:10.959Z,1.30
2022-09-03T02:38:10.961Z,1.20
2022-09-03T02:39:10.967Z,1.30
2022-09-03T02:40:11.104Z,1.20
2022-09-03T02:41:10.966Z,1.10
2022-09-03T02:42:10.970Z,1.30
2022-09-03T02:43:10.971Z,1.20
2022-09-03T02:44:10.971Z,1.30
2022-09-03T02:45:10.970Z,1.30
2022-09-03T02:46:11.042Z,1.30
2022-09-03T02:47:10.975Z,1.20
2022-09-03T02:48:10.979Z,1.20
2022-09-03T02:49:10.976Z,1.30
2022-09-03T02:50:10.982Z,1.20
2022-09-03T02:51:14.169Z,1.40
2022-09-03T02:52:10.984Z,1.20
2022-09-03T02:53:10.985Z,1.20
2022-09-03T02:54:10.985Z,1.30
2022-09-03T02:55:10.987Z,1.20
2022-09-03T02:56:10.992Z,1.30
2022-09-03T02:57:10.992Z,1.20
2022-09-03T02:58:10.990Z,1.10
2022-09-03T02:59:10.993Z,1.20
2022-09-03T03:00:10.996Z,1.20
2022-09-03T03:01:11.030Z,1.20
2022-09-03T03:02:11.052Z,1.30
2022-09-03T03:03:10.999Z,1.30
2022-09-03T03:04:11.002Z,1.00
2022-09-03T03:05:11.004Z,1.20
2022-09-03T03:06:11.004Z,1.10
2022-09-03T03:07:11.005Z,1.30
2022-09-03T03:08:11.009Z,1.20
2022-09-03T03:09:11.005Z,1.20
2022-09-03T03:10:11.010Z,1.30
2022-09-03T03:11:11.009Z,1.30
2022-09-03T03:12:11.015Z,1.20
2022-09-03T03:13:11.012Z,1.40
2022-09-03T03:14:11.016Z,1.30
2022-09-03T03:15:11.017Z,1.40
2022-09-03T03:16:11.127Z,1.20
2022-09-03T03:17:11.018Z,1.50
2022-09-03T03:18:11.017Z,1.10
2022-09-03T03:19:11.019Z,1.20
2022-09-03T03:20:11.024Z,1.30
2022-09-03T03:21:11.022Z,1.20
2022-09-03T03:22:11.027Z,1.30
2022-09-03T03:23:11.026Z,1.10
2022-09-03T03:24:11.032Z,1.20
2022-09-03T03:25:11.028Z,1.30
2022-09-03T03:26:11.029Z,1.30
2022-09-03T03:27:11.036Z,1.20
2022-09-03T03:28:11.036Z,1.10
2022-09-03T03:29:11.035Z,1.20
2022-09-03T03:30:11.039Z,1.10
2022-09-03T03:31:11.075Z,1.20
2022-09-03T03:32:11.042Z,1.20
2022-09-03T03:33:11.038Z,1.10
2022-09-03T03:34:11.046Z,1.20
2022-09-03T03:35:11.042Z,1.40
2022-09-03T03:36:11.048Z,1.30
2022-09-03T03:37:11.046Z,1.40
2022-09-03T03:38:11.060Z,1.30
2022-09-03T03:39:11.330Z,1.10
2022-09-03T03:40:11.049Z,1.20
2022-09-03T03:41:11.051Z,1.30
2022-09-03T03:42:11.066Z,1.30
2022-09-03T03:43:11.053Z,1.20
2022-09-03T03:44:11.069Z,1.20
2022-09-03T03:45:11.059Z,1.40
2022-09-03T03:46:11.114Z,1.20
2022-09-03T03:47:11.059Z,1.20
2022-09-03T03:48:11.065Z,1.30
2022-09-03T03:49:11.063Z,1.30
2022-09-03T03:50:11.063Z,1.30
2022-09-03T03:51:11.075Z,1.30
2022-09-03T03:52:11.068Z,1.30
2022-09-03T03:53:11.078Z,1.40
2022-09-03T03:54:11.067Z,1.20
2022-09-03T03:55:11.071Z,1.30
2022-09-03T03:56:11.071Z,1.10
2022-09-03T03:57:11.072Z,1.30
2022-09-03T03:58:11.073Z,1.20
2022-09-03T03:59:11.078Z,1.20
2022-09-03T04:00:11.083Z,1.30
2022-09-03T04:01:11.122Z,1.40
2022-09-03T04:02:11.129Z,1.20
2022-09-03T04:03:11.082Z,1.50
2022-09-03T04:04:11.083Z,1.30
2022-09-03T04:05:11.083Z,1.20
2022-09-03T04:06:11.082Z,1.30
2022-09-03T04:07:11.094Z,1.20
2022-09-03T04:08:11.091Z,1.30
2022-09-03T04:09:11.101Z,1.20
2022-09-03T04:10:11.089Z,1.40
2022-09-03T04:11:11.095Z,1.30
2022-09-03T04:12:11.097Z,1.20
2022-09-03T04:13:11.097Z,1.10
2022-09-03T04:14:11.092Z,1.20
2022-09-03T04:15:11.094Z,1.30
2022-09-03T04:16:11.151Z,1.30
2022-09-03T04:17:11.099Z,1.20
2022-09-03T04:18:11.098Z,1.20
2022-09-03T04:19:11.100Z,1.30
2022-09-03T04:20:11.101Z,1.40
2022-09-03T04:21:11.101Z,1.40
2022-09-03T04:22:11.103Z,1.30
2022-09-03T04:23:11.108Z,1.20
2022-09-03T04:24:11.104Z,1.20
2022-09-03T04:25:11.108Z,1.40
2022-09-03T04:26:11.109Z,1.40
2022-09-03T04:27:11.111Z,1.30
2022-09-03T04:28:11.110Z,1.40
2022-09-03T04:29:11.112Z,1.20
2022-09-03T04:30:11.112Z,1.20
2022-09-03T04:31:11.246Z,1.30
2022-09-03T04:32:11.115Z,1.20
2022-09-03T04:33:16.165Z,1.40
2022-09-03T04:34:11.117Z,1.30
2022-09-03T04:35:11.121Z,1.20
2022-09-03T04:36:11.121Z,1.30
2022-09-03T04:37:11.131Z,1.40
2022-09-03T04:38:11.123Z,1.20
2022-09-03T04:39:11.129Z,1.30
2022-09-03T04:40:11.124Z,1.30
2022-09-03T04:41:11.123Z,1.20
2022-09-03T04:42:11.125Z,1.40
2022-09-03T04:43:11.131Z,1.40
2022-09-03T04:44:11.128Z,1.40
2022-09-03T04:45:11.130Z,1.30
2022-09-03T04:46:17.618Z,1.50
2022-09-03T04:47:11.131Z,1.20
2022-09-03T04:48:11.133Z,1.30
2022-09-03T04:49:11.138Z,1.40
2022-09-03T04:50:11.132Z,1.30
2022-09-03T04:51:11.140Z,1.40
2022-09-03T04:52:11.135Z,1.40
2022-09-03T04:53:11.152Z,1.30
2022-09-03T04:54:11.141Z,1.40
2022-09-03T04:55:11.148Z,1.30
2022-09-03T04:56:11.137Z,1.40
2022-09-03T04:57:11.140Z,1.40
2022-09-03T04:58:11.139Z,1.40
2022-09-03T04:59:11.142Z,1.40
2022-09-03T05:00:11.144Z,1.30
2022-09-03T05:01:11.189Z,1.20
2022-09-03T05:02:11.196Z,1.30
2022-09-03T05:03:11.143Z,1.30
2022-09-03T05:04:11.144Z,1.40
2022-09-03T05:05:11.145Z,1.50
2022-09-03T05:06:11.145Z,1.50
2022-09-03T05:07:11.155Z,1.30
2022-09-03T05:08:11.155Z,1.50
2022-09-03T05:09:11.153Z,1.60
2022-09-03T05:10:11.153Z,1.40
2022-09-03T05:11:11.153Z,1.50
2022-09-03T05:12:11.151Z,1.30
2022-09-03T05:13:11.153Z,1.30
2022-09-03T05:14:11.150Z,1.50
2022-09-03T05:15:11.152Z,1.20
2022-09-03T05:16:11.223Z,1.40
2022-09-03T05:17:11.155Z,1.40
2022-09-03T05:18:11.155Z,1.50
2022-09-03T05:19:11.156Z,1.50
2022-09-03T05:20:11.154Z,1.40
2022-09-03T05:21:11.158Z,1.50
2022-09-03T05:22:11.155Z,1.30
2022-09-03T05:23:11.161Z,1.50
2022-09-03T05:24:11.164Z,1.40
2022-09-03T05:25:11.159Z,1.50
2022-09-03T05:26:11.253Z,1.40
2022-09-03T05:27:11.161Z,1.40
2022-09-03T05:28:11.160Z,1.50
2022-09-03T05:29:11.164Z,1.30
2022-09-03T05:30:11.161Z,1.40
2022-09-03T05:31:11.216Z,1.50
2022-09-03T05:32:11.163Z,1.50
2022-09-03T05:33:11.163Z,1.60
2022-09-03T05:34:16.660Z,1.50
2022-09-03T05:35:11.163Z,1.60
2022-09-03T05:36:11.163Z,1.40
2022-09-03T05:37:11.167Z,1.40
2022-09-03T05:38:11.164Z,1.20
2022-09-03T05:39:11.169Z,1.50
2022-09-03T05:40:11.166Z,1.30
2022-09-03T05:41:11.170Z,1.40
2022-09-03T05:42:11.167Z,1.30
2022-09-03T05:43:11.210Z,1.50
2022-09-03T05:44:11.171Z,1.60
2022-09-03T05:45:11.525Z,1.40
2022-09-03T05:46:11.270Z,1.40
2022-09-03T05:47:11.172Z,1.50
2022-09-03T05:48:11.172Z,1.50
2022-09-03T05:49:11.174Z,1.40
2022-09-03T05:50:11.178Z,1.40
2022-09-03T05:51:11.180Z,1.30
2022-09-03T05:52:11.174Z,1.60
2022-09-03T05:53:11.177Z,1.30
2022-09-03T05:54:11.174Z,1.30
2022-09-03T05:55:13.411Z,1.40
2022-09-03T05:56:11.178Z,1.40
2022-09-03T05:57:11.181Z,1.30
2022-09-03T05:58:11.179Z,1.40
2022-09-03T05:59:11.181Z,1.40
2022-09-03T06:00:11.182Z,1.40
2022-09-03T06:01:11.181Z,1.30
2022-09-03T06:02:12.166Z,1.40
2022-09-03T06:03:11.311Z,1.30
2022-09-03T06:04:11.185Z,1.40
2022-09-03T06:05:11.186Z,1.40
2022-09-03T06:06:11.192Z,1.50
2022-09-03T06:07:11.188Z,1.40
2022-09-03T06:08:11.188Z,1.50
2022-09-03T06:09:11.196Z,1.20
2022-09-03T06:10:11.190Z,1.40
2022-09-03T06:11:11.191Z,1.20
2022-09-03T06:12:11.194Z,1.40
2022-09-03T06:13:11.192Z,1.20
2022-09-03T06:14:11.191Z,1.30
2022-09-03T06:15:11.194Z,1.30
2022-09-03T06:16:11.232Z,1.30
2022-09-03T06:17:11.199Z,1.50
2022-09-03T06:18:11.204Z,1.40
2022-09-03T06:19:11.195Z,1.20
2022-09-03T06:20:11.197Z,1.20
2022-09-03T06:21:11.198Z,1.20
2022-09-03T06:22:11.198Z,1.40
2022-09-03T06:23:11.199Z,1.30
2022-09-03T06:24:11.232Z,1.30
2022-09-03T06:25:11.201Z,1.30
2022-09-03T06:26:11.211Z,1.20
2022-09-03T06:27:11.205Z,1.20
2022-09-03T06:28:11.204Z,1.40
2022-09-03T06:29:11.219Z,1.30
2022-09-03T06:30:11.204Z,1.20
2022-09-03T06:31:11.239Z,1.30
2022-09-03T06:32:11.206Z,1.50
2022-09-03T06:33:11.211Z,1.30
2022-09-03T06:34:12.512Z,1.30
2022-09-03T06:35:11.216Z,1.20
2022-09-03T06:36:11.212Z,1.20
2022-09-03T06:37:11.213Z,1.30
2022-09-03T06:38:11.212Z,1.20
2022-09-03T06:39:11.214Z,1.30
2022-09-03T06:40:11.215Z,1.20
2022-09-03T06:41:11.225Z,1.30
2022-09-03T06:42:11.225Z,1.20
2022-09-03T06:43:11.218Z,1.20
2022-09-03T06:44:11.220Z,1.20
2022-09-03T06:45:12.205Z,1.20
2022-09-03T06:46:11.304Z,1.50
2022-09-03T06:47:11.224Z,1.20
2022-09-03T06:48:11.222Z,1.30
2022-09-03T06:49:11.236Z,1.20
2022-09-03T06:50:11.226Z,1.40
2022-09-03T06:51:11.226Z,1.40
2022-09-03T06:52:11.226Z,1.40
2022-09-03T06:53:11.232Z,1.20
2022-09-03T06:54:11.260Z,1.30
2022-09-03T06:55:11.237Z,1.50
2022-09-03T06:56:11.234Z,1.20
2022-09-03T06:57:11.240Z,1.40
2022-09-03T06:58:11.232Z,1.30
2022-09-03T06:59:11.239Z,1.10
2022-09-03T07:00:11.235Z,1.40
2022-09-03T07:01:11.383Z,1.30
2022-09-03T07:02:11.475Z,1.30
2022-09-03T07:03:11.240Z,1.20
2022-09-03T07:04:11.242Z,1.30
2022-09-03T07:05:11.245Z,1.40
2022-09-03T07:06:11.242Z,1.30
2022-09-03T07:07:11.246Z,1.40
2022-09-03T07:08:11.246Z,1.30
2022-09-03T07:09:11.259Z,1.20
2022-09-03T07:10:11.248Z,1.50
2022-09-03T07:11:11.251Z,1.40
2022-09-03T07:12:11.272Z,1.30
2022-09-03T07:13:11.257Z,1.40
2022-09-03T07:14:11.253Z,1.30
2022-09-03T07:15:11.258Z,1.40
2022-09-03T07:16:11.369Z,1.40
2022-09-03T07:17:11.263Z,1.20
2022-09-03T07:18:11.257Z,1.50
2022-09-03T07:19:11.263Z,1.40
2022-09-03T07:20:11.260Z,1.20
2022-09-03T07:21:11.262Z,1.30
2022-09-03T07:22:11.262Z,1.40
2022-09-03T07:23:11.265Z,1.20
2022-09-03T07:24:11.268Z,1.20
2022-09-03T07:25:11.270Z,1.40
2022-09-03T07:26:11.271Z,1.30
2022-09-03T07:27:14.971Z,1.30
2022-09-03T07:28:11.274Z,1.40
2022-09-03T07:29:11.272Z,1.20
2022-09-03T07:30:11.276Z,1.40
2022-09-03T07:31:11.280Z,1.30
2022-09-03T07:32:11.353Z,1.30
2022-09-03T07:33:11.281Z,1.40
2022-09-03T07:34:11.281Z,1.40
2022-09-03T07:35:11.283Z,1.30
2022-09-03T07:36:11.287Z,1.50
2022-09-03T07:37:11.288Z,1.40
2022-09-03T07:38:11.285Z,1.20
2022-09-03T07:39:11.292Z,1.30
2022-09-03T07:40:11.290Z,1.40
2022-09-03T07:41:11.291Z,1.40
2022-09-03T07:42:11.296Z,1.30
2022-09-03T07:43:11.296Z,1.30
2022-09-03T07:44:11.294Z,1.40
2022-09-03T07:45:11.752Z,1.30
2022-09-03T07:46:11.316Z,1.20
2022-09-03T07:47:11.306Z,1.40
2022-09-03T07:48:11.313Z,1.30
2022-09-03T07:49:11.317Z,1.30
2022-09-03T07:50:11.322Z,1.30
2022-09-03T07:51:11.308Z,1.30
2022-09-03T07:52:11.962Z,1.40
2022-09-03T07:53:11.315Z,1.40
2022-09-03T07:54:11.807Z,1.30
2022-09-03T07:55:11.314Z,1.60
2022-09-03T07:56:11.316Z,1.50
2022-09-03T07:57:11.317Z,1.40
2022-09-03T07:58:11.318Z,1.50
2022-09-03T07:59:11.322Z,1.30
2022-09-03T08:00:11.329Z,1.30
2022-09-03T08:01:11.535Z,1.30
2022-09-03T08:02:11.324Z,1.40
2022-09-03T08:03:11.329Z,1.40
2022-09-03T08:04:11.367Z,1.30
2022-09-03T08:05:11.339Z,1.40
2022-09-03T08:06:11.333Z,1.30
2022-09-03T08:07:11.369Z,1.50
2022-09-03T08:08:11.339Z,1.40
2022-09-03T08:09:11.427Z,1.50
2022-09-03T08:10:11.350Z,1.40
2022-09-03T08:11:11.343Z,1.30
2022-09-03T08:12:11.354Z,1.30
2022-09-03T08:13:11.344Z,1.30
2022-09-03T08:14:11.351Z,1.30
2022-09-03T08:15:11.353Z,1.50
2022-09-03T08:16:11.401Z,1.40
2022-09-03T08:17:11.351Z,1.30
2022-09-03T08:18:11.366Z,1.30
2022-09-03T08:19:11.476Z,1.30
2022-09-03T08:20:11.367Z,1.50
2022-09-03T08:21:11.360Z,1.30
2022-09-03T08:22:11.365Z,1.40
2022-09-03T08:23:11.366Z,1.40
2022-09-03T08:24:11.369Z,1.50
2022-09-03T08:25:13.634Z,1.30
2022-09-03T08:26:11.375Z,1.30
2022-09-03T08:27:11.377Z,1.40
2022-09-03T08:28:11.381Z,1.40
2022-09-03T08:29:11.381Z,1.40
2022-09-03T08:30:11.386Z,1.40
2022-09-03T08:31:11.504Z,1.40
2022-09-03T08:32:11.391Z,1.30
2022-09-03T08:33:11.391Z,1.40
2022-09-03T08:34:11.395Z,1.50
2022-09-03T08:35:11.395Z,1.30
2022-09-03T08:36:11.398Z,1.40
2022-09-03T08:37:11.406Z,1.30
2022-09-03T08:38:11.405Z,1.50
2022-09-03T08:39:11.417Z,1.50
2022-09-03T08:40:11.419Z,1.40
2022-09-03T08:41:11.415Z,1.40
2022-09-03T08:42:11.418Z,1.30
2022-09-03T08:43:11.415Z,1.50
2022-09-03T08:44:11.419Z,1.40
2022-09-03T08:45:11.621Z,1.50
2022-09-03T08:46:11.499Z,1.50
2022-09-03T08:47:11.428Z,1.50
2022-09-03T08:48:11.434Z,1.60
2022-09-03T08:49:11.446Z,1.40
2022-09-03T08:50:11.434Z,1.40
2022-09-03T08:51:11.437Z,1.40
2022-09-03T08:52:11.440Z,1.50
2022-09-03T08:53:11.442Z,1.40
2022-09-03T08:54:11.442Z,1.50
2022-09-03T08:55:11.460Z,1.40
2022-09-03T08:56:11.453Z,1.50
2022-09-03T08:57:11.448Z,1.50
2022-09-03T08:58:11.452Z,1.30
2022-09-03T08:59:11.474Z,1.70
2022-09-03T09:00:11.460Z,1.50
2022-09-03T09:01:11.455Z,1.50
2022-09-03T09:02:11.637Z,1.40
2022-09-03T09:03:11.481Z,1.40
2022-09-03T09:04:11.485Z,1.50
2022-09-03T09:05:14.363Z,1.60
2022-09-03T09:06:11.471Z,1.20
2022-09-03T09:07:11.479Z,1.40
2022-09-03T09:08:11.472Z,1.40
2022-09-03T09:09:11.483Z,1.30
2022-09-03T09:10:11.505Z,1.50
2022-09-03T09:11:11.500Z,1.40
2022-09-03T09:12:11.483Z,1.50
2022-09-03T09:13:11.484Z,1.50
2022-09-03T09:14:11.489Z,1.50
2022-09-03T09:15:11.487Z,1.70
2022-09-03T09:16:11.594Z,1.40
2022-09-03T09:17:11.492Z,1.40
2022-09-03T09:18:11.498Z,1.40
2022-09-03T09:19:11.513Z,1.40
2022-09-03T09:20:11.500Z,1.40
2022-09-03T09:21:11.501Z,1.50
2022-09-03T09:22:11.508Z,1.30
2022-09-03T09:23:11.507Z,1.50
2022-09-03T09:24:11.516Z,1.50
2022-09-03T09:25:11.513Z,1.40
2022-09-03T09:26:11.520Z,1.60
2022-09-03T09:27:15.903Z,1.40
2022-09-03T09:28:11.558Z,1.40
2022-09-03T09:29:11.520Z,1.50
2022-09-03T09:30:11.525Z,1.80
2022-09-03T09:31:11.638Z,1.40
2022-09-03T09:32:11.530Z,1.50
2022-09-03T09:33:11.530Z,1.70
2022-09-03T09:34:11.535Z,1.50
2022-09-03T09:35:11.546Z,1.60
2022-09-03T09:36:11.544Z,1.40
2022-09-03T09:37:11.537Z,1.60
2022-09-03T09:38:11.542Z,1.60
2022-09-03T09:39:11.545Z,1.70
2022-09-03T09:40:11.547Z,1.50
2022-09-03T09:41:11.549Z,1.60
2022-09-03T09:42:11.553Z,1.60
2022-09-03T09:43:11.555Z,1.30
2022-09-03T09:44:11.572Z,1.40
2022-09-03T09:45:11.917Z,1.30
2022-09-03T09:46:11.597Z,1.50
2022-09-03T09:47:11.564Z,1.50
2022-09-03T09:48:11.564Z,1.50
2022-09-03T09:49:11.570Z,1.50
2022-09-03T09:50:23.651Z,1.50
2022-09-03T09:51:11.582Z,1.70
2022-09-03T09:52:11.576Z,1.70
2022-09-03T09:53:11.575Z,1.60
2022-09-03T09:54:11.579Z,1.60
2022-09-03T09:55:11.582Z,1.70
2022-09-03T09:56:11.587Z,1.70
2022-09-03T09:57:11.588Z,1.60
2022-09-03T09:58:14.554Z,1.70
2022-09-03T09:59:11.595Z,1.60
2022-09-03T10:00:11.596Z,1.50
2022-09-03T10:01:11.622Z,1.60
2022-09-03T10:02:11.605Z,1.70
2022-09-03T10:03:11.658Z,1.70
2022-09-03T10:04:11.606Z,1.60
2022-09-03T10:05:11.606Z,1.50
2022-09-03T10:06:11.611Z,1.70
2022-09-03T10:07:11.612Z,1.50
2022-09-03T10:08:11.617Z,1.50
2022-09-03T10:09:11.617Z,1.60
2022-09-03T10:10:11.623Z,1.50
2022-09-03T10:11:11.624Z,1.50
2022-09-03T10:12:11.624Z,1.60
2022-09-03T10:13:11.627Z,1.50
2022-09-03T10:14:11.628Z,1.50
2022-09-03T10:15:11.630Z,1.70
2022-09-03T10:16:11.675Z,1.60
2022-09-03T10:17:11.639Z,1.40
2022-09-03T10:18:11.640Z,1.50
2022-09-03T10:19:11.639Z,1.50
2022-09-03T10:20:11.646Z,1.60
2022-09-03T10:21:11.643Z,1.80
2022-09-03T10:22:11.655Z,1.70
2022-09-03T10:23:11.648Z,1.70
2022-09-03T10:24:11.653Z,1.70
2022-09-03T10:25:11.653Z,1.60
2022-09-03T10:26:11.656Z,1.60
2022-09-03T10:27:11.660Z,1.60
2022-09-03T10:28:13.309Z,1.70
2022-09-03T10:29:11.664Z,1.50
2022-09-03T10:30:11.670Z,1.80
2022-09-03T10:31:11.885Z,1.70
2022-09-03T10:32:11.680Z,1.70
2022-09-03T10:33:11.678Z,1.80
2022-09-03T10:34:11.678Z,1.70
2022-09-03T10:35:11.692Z,1.80
2022-09-03T10:36:11.687Z,1.90
2022-09-03T10:37:11.684Z,1.90
2022-09-03T10:38:11.689Z,2.00
2022-09-03T10:39:11.690Z,2.10
2022-09-03T10:40:11.736Z,1.70
2022-09-03T10:41:11.694Z,1.90
2022-09-03T10:42:11.701Z,2.00
2022-09-03T10:43:11.700Z,1.90
2022-09-03T10:44:11.704Z,1.90
2022-09-03T10:45:11.955Z,1.70
2022-09-03T10:46:11.742Z,1.90
2022-09-03T10:47:11.710Z,1.80
2022-09-03T10:48:11.713Z,1.80
2022-09-03T10:49:11.717Z,2.10
2022-09-03T10:50:11.720Z,1.80
2022-09-03T10:51:11.724Z,1.90
2022-09-03T10:52:11.728Z,2.00
2022-09-03T10:53:11.732Z,2.00
2022-09-03T10:54:11.728Z,1.90
2022-09-03T10:55:11.734Z,2.00
2022-09-03T10:56:11.733Z,1.90
2022-09-03T10:57:11.734Z,2.00
2022-09-03T10:58:11.738Z,1.90
2022-09-03T10:59:11.740Z,1.90
2022-09-03T11:00:11.747Z,2.00
2022-09-03T11:01:11.795Z,1.70
2022-09-03T11:02:11.798Z,1.80
2022-09-03T11:03:11.750Z,1.90
2022-09-03T11:04:11.753Z,2.00
2022-09-03T11:05:11.754Z,1.80
2022-09-03T11:06:11.756Z,1.80
2022-09-03T11:07:11.759Z,1.80
2022-09-03T11:08:11.766Z,1.60
2022-09-03T11:09:11.763Z,2.00
2022-09-03T11:10:11.770Z,1.90
2022-09-03T11:11:11.772Z,1.90
2022-09-03T11:12:11.774Z,1.70
2022-09-03T11:13:11.776Z,1.90
2022-09-03T11:14:11.783Z,1.90
2022-09-03T11:15:11.781Z,1.70
2022-09-03T11:16:11.878Z,1.80
2022-09-03T11:17:11.786Z,1.90
2022-09-03T11:18:11.789Z,1.80
2022-09-03T11:19:11.791Z,1.80
2022-09-03T11:20:11.795Z,1.60
2022-09-03T11:21:12.403Z,1.80
2022-09-03T11:22:11.800Z,1.80
2022-09-03T11:23:11.800Z,1.80
2022-09-03T11:24:11.805Z,1.80
2022-09-03T11:25:11.804Z,1.80
2022-09-03T11:26:11.809Z,1.90
2022-09-03T11:27:11.817Z,2.00
2022-09-03T11:28:11.819Z,2.00
2022-09-03T11:29:11.818Z,1.80
2022-09-03T11:30:11.821Z,2.00
2022-09-03T11:31:11.850Z,1.90
2022-09-03T11:32:11.846Z,1.60
2022-09-03T11:33:11.827Z,1.80
2022-09-03T11:34:11.831Z,1.90
2022-09-03T11:35:11.832Z,1.90
2022-09-03T11:36:11.839Z,1.50
2022-09-03T11:37:11.836Z,1.90
2022-09-03T11:38:11.841Z,1.70
2022-09-03T11:39:12.019Z,2.00
2022-09-03T11:40:11.850Z,1.80
2022-09-03T11:41:11.847Z,1.90
2022-09-03T11:42:11.850Z,1.80
2022-09-03T11:43:11.851Z,1.90
2022-09-03T11:44:11.855Z,2.00
2022-09-03T11:45:12.008Z,1.80
2022-09-03T11:46:12.040Z,1.90
2022-09-03T11:47:11.863Z,1.80
2022-09-03T11:48:11.965Z,1.90
2022-09-03T11:49:11.888Z,1.80
2022-09-03T11:50:11.896Z,2.00
2022-09-03T11:51:11.876Z,1.80
2022-09-03T11:52:11.884Z,1.70
2022-09-03T11:53:11.879Z,1.70
2022-09-03T11:54:11.883Z,1.90
2022-09-03T11:55:11.882Z,2.00
2022-09-03T11:56:11.888Z,2.00
2022-09-03T11:57:11.888Z,3.10
2022-09-03T11:58:11.889Z,4.10
2022-09-03T11:59:11.890Z,2.20
2022-09-03T12:00:12.028Z,1.90
2022-09-03T12:01:13.234Z,2.10
2022-09-03T12:02:11.931Z,2.00
2022-09-03T12:03:11.903Z,2.00
2022-09-03T12:04:11.920Z,1.90
2022-09-03T12:05:11.904Z,1.80
2022-09-03T12:06:11.916Z,2.70
2022-09-03T12:07:11.917Z,4.00
2022-09-03T12:08:11.913Z,2.60
2022-09-03T12:09:11.917Z,2.20
2022-09-03T12:10:12.034Z,2.00
2022-09-03T12:11:11.923Z,2.10
2022-09-03T12:12:11.928Z,1.90
2022-09-03T12:13:11.933Z,1.70
2022-09-03T12:14:13.879Z,2.00
2022-09-03T12:15:11.932Z,1.80
2022-09-03T12:16:11.989Z,2.00
2022-09-03T12:17:11.936Z,1.90
2022-09-03T12:18:11.945Z,2.20
2022-09-03T12:19:12.858Z,1.80
2022-09-03T12:20:11.948Z,2.20
2022-09-03T12:21:11.948Z,2.00
2022-09-03T12:22:11.953Z,2.20
2022-09-03T12:23:12.106Z,2.00
2022-09-03T12:24:11.957Z,2.00
2022-09-03T12:25:12.204Z,2.10
2022-09-03T12:26:11.962Z,2.00
2022-09-03T12:27:11.969Z,2.20
2022-09-03T12:28:11.976Z,2.10
2022-09-03T12:29:12.365Z,2.40
2022-09-03T12:30:11.974Z,2.40
2022-09-03T12:31:12.010Z,2.50
2022-09-03T12:32:11.984Z,2.10
2022-09-03T12:33:11.991Z,2.30
2022-09-03T12:34:11.984Z,2.30
2022-09-03T12:35:12.032Z,2.20
2022-09-03T12:36:11.991Z,2.40
2022-09-03T12:37:11.996Z,3.30
2022-09-03T12:38:16.221Z,2.50
2022-09-03T12:39:13.155Z,2.20
2022-09-03T12:40:12.214Z,2.40
2022-09-03T12:41:27.710Z,2.50
2022-09-03T12:42:12.007Z,3.70
2022-09-03T12:44:12.011Z,2.60
2022-09-03T12:45:12.268Z,2.50
2022-09-03T12:46:12.025Z,2.30
2022-09-03T12:48:12.042Z,2.40
2022-09-03T12:50:12.092Z,2.30
2022-09-03T12:52:12.034Z,2.60
2022-09-03T12:53:12.040Z,2.40
2022-09-03T12:54:12.041Z,2.30
2022-09-03T12:55:12.795Z,2.50
2022-09-03T12:56:12.045Z,2.40
2022-09-03T12:57:12.075Z,2.40
2022-09-03T12:58:13.960Z,2.40
2022-09-03T12:59:12.071Z,2.70
2022-09-03T13:00:12.076Z,4.20
2022-09-03T13:01:12.182Z,3.10
2022-09-03T13:02:12.185Z,2.50
2022-09-03T13:03:12.072Z,2.50
2022-09-03T13:04:12.069Z,2.60
2022-09-03T13:05:12.112Z,2.60
2022-09-03T13:06:12.076Z,2.70
2022-09-03T13:07:12.086Z,2.40
2022-09-03T13:08:12.080Z,2.80
2022-09-03T13:09:12.084Z,4.10
2022-09-03T13:10:12.085Z,3.10
2022-09-03T13:11:12.092Z,2.70
2022-09-03T13:12:12.093Z,2.60
2022-09-03T13:13:12.099Z,2.60
2022-09-03T13:14:12.099Z,3.40
2022-09-03T13:15:12.103Z,2.80
2022-09-03T13:16:12.142Z,3.10
2022-09-03T13:17:12.107Z,2.60
2022-09-03T13:18:12.113Z,2.80
2022-09-03T13:19:12.118Z,2.60
2022-09-03T13:20:12.119Z,2.50
2022-09-03T13:21:12.124Z,2.60
2022-09-03T13:22:12.121Z,2.70